createdAt,value
2023-09-06T00:00:02.805Z,100
2023-09-06T00:02:02.040Z,100
2023-09-06T00:03:02.181Z,100
2023-09-06T00:04:02.880Z,100
2023-09-06T00:05:01.947Z,100
2023-09-06T00:06:01.774Z,100
2023-09-06T00:07:01.797Z,100
2023-09-06T00:08:01.688Z,100
2023-09-06T00:09:01.661Z,100
2023-09-06T00:10:01.751Z,100
2023-09-06T00:11:01.551Z,100
2023-09-06T00:12:01.524Z,100
2023-09-06T00:13:01.584Z,100
2023-09-06T00:14:01.391Z,100
2023-09-06T00:15:02.435Z,100
2023-09-06T00:17:02.158Z,100
2023-09-06T00:18:02.093Z,100
2023-09-06T00:19:02.200Z,100
2023-09-06T00:20:02.017Z,100
2023-09-06T00:21:02.097Z,100
2023-09-06T00:22:02.133Z,100
2023-09-06T00:23:02.013Z,100
2023-09-06T00:24:01.978Z,100
2023-09-06T00:25:01.942Z,100
2023-09-06T00:26:01.796Z,100
2023-09-06T00:27:01.782Z,100
2023-09-06T00:28:01.779Z,100
2023-09-06T00:29:01.650Z,100
2023-09-06T00:30:01.698Z,100
2023-09-06T00:31:01.744Z,100
2023-09-06T00:32:01.740Z,100
2023-09-06T00:33:01.689Z,100
2023-09-06T00:34:01.602Z,100
2023-09-06T00:35:01.520Z,100
2023-09-06T00:36:01.444Z,100
2023-09-06T00:37:02.479Z,100
2023-09-06T00:38:02.331Z,100
2023-09-06T00:39:02.306Z,100
2023-09-06T00:40:02.449Z,100
2023-09-06T00:41:02.301Z,100
2023-09-06T00:42:02.178Z,100
2023-09-06T00:43:02.370Z,100
2023-09-06T00:44:02.436Z,100
2023-09-06T00:45:02.426Z,100
2023-09-06T00:46:02.392Z,100
2023-09-06T00:47:02.332Z,100
2023-09-06T00:48:02.296Z,100
2023-09-06T00:49:02.291Z,100
2023-09-06T00:50:02.115Z,100
2023-09-06T00:51:02.026Z,100
2023-09-06T00:52:02.113Z,100
2023-09-06T00:53:01.933Z,100
2023-09-06T00:54:01.897Z,100
2023-09-06T00:55:01.990Z,100
2023-09-06T00:56:01.832Z,100
2023-09-06T00:57:02.278Z,100
2023-09-06T00:58:01.941Z,100
2023-09-06T00:59:01.823Z,100
2023-09-06T01:00:02.105Z,100
2023-09-06T01:01:01.994Z,100
2023-09-06T01:02:02.216Z,100
2023-09-06T01:03:02.506Z,100
2023-09-06T01:04:02.295Z,100
2023-09-06T01:05:02.151Z,100
2023-09-06T01:06:02.046Z,100
2023-09-06T01:07:02.110Z,100
2023-09-06T01:08:01.938Z,100
2023-09-06T01:09:01.898Z,100
2023-09-06T01:10:01.928Z,100
2023-09-06T01:11:01.733Z,100
2023-09-06T01:12:01.785Z,100
2023-09-06T01:13:01.731Z,100
2023-09-06T01:14:01.569Z,100
2023-09-06T01:15:01.665Z,100
2023-09-06T01:16:01.576Z,100
2023-09-06T01:17:02.987Z,100
2023-09-06T01:18:01.794Z,100
2023-09-06T01:19:01.710Z,100
2023-09-06T01:20:01.599Z,100
2023-09-06T01:21:01.553Z,100
2023-09-06T01:22:01.571Z,100
2023-09-06T01:23:01.558Z,100
2023-09-06T01:24:01.454Z,100
2023-09-06T01:25:02.501Z,100
2023-09-06T01:26:02.398Z,100
2023-09-06T01:27:02.319Z,100
2023-09-06T01:28:02.492Z,100
2023-09-06T01:29:02.237Z,100
2023-09-06T01:30:02.201Z,100
2023-09-06T01:32:01.899Z,100
2023-09-06T01:33:01.835Z,100
2023-09-06T01:34:01.876Z,100
2023-09-06T01:35:01.603Z,100
2023-09-06T01:36:01.506Z,100
2023-09-06T01:37:01.610Z,100
2023-09-06T01:38:01.507Z,100
2023-09-06T01:39:01.488Z,100
2023-09-06T01:40:02.492Z,100
2023-09-06T01:41:02.457Z,100
2023-09-06T01:42:02.377Z,100
2023-09-06T01:43:02.321Z,100
2023-09-06T01:44:02.346Z,100
2023-09-06T01:45:02.315Z,100
2023-09-06T01:46:02.322Z,100
2023-09-06T01:47:02.126Z,100
2023-09-06T01:48:02.093Z,100
2023-09-06T01:49:02.005Z,100
2023-09-06T01:50:01.910Z,100
2023-09-06T01:51:01.867Z,100
2023-09-06T01:52:01.911Z,100
2023-09-06T01:53:01.753Z,100
2023-09-06T01:54:01.701Z,100
2023-09-06T01:55:02.288Z,100
2023-09-06T01:56:02.018Z,100
2023-09-06T01:57:01.960Z,100
2023-09-06T01:58:01.969Z,100
2023-09-06T01:59:01.985Z,100
2023-09-06T02:00:03.205Z,100
2023-09-06T02:02:01.682Z,100
2023-09-06T02:03:01.697Z,100
2023-09-06T02:04:01.719Z,100
2023-09-06T02:05:01.597Z,100
2023-09-06T02:06:01.998Z,100
2023-09-06T02:07:01.669Z,100
2023-09-06T02:08:01.536Z,100
2023-09-06T02:09:01.499Z,100
2023-09-06T02:10:01.533Z,100
2023-09-06T02:11:02.548Z,100
2023-09-06T02:12:02.448Z,100
2023-09-06T02:13:02.460Z,100
2023-09-06T02:14:02.313Z,100
2023-09-06T02:15:02.346Z,100
2023-09-06T02:16:02.323Z,100
2023-09-06T02:17:02.287Z,100
2023-09-06T02:18:02.289Z,100
2023-09-06T02:19:02.261Z,100
2023-09-06T02:20:02.167Z,100
2023-09-06T02:21:02.092Z,100
2023-09-06T02:22:02.096Z,100
2023-09-06T02:23:01.919Z,100
2023-09-06T02:24:01.860Z,100
2023-09-06T02:25:01.860Z,100
2023-09-06T02:26:01.731Z,100
2023-09-06T02:27:01.733Z,100
2023-09-06T02:28:01.789Z,100
2023-09-06T02:29:01.599Z,100
2023-09-06T02:30:01.564Z,100
2023-09-06T02:31:02.254Z,100
2023-09-06T02:32:02.437Z,100
2023-09-06T02:33:02.341Z,100
2023-09-06T02:34:02.353Z,100
2023-09-06T02:35:02.226Z,100
2023-09-06T02:36:02.182Z,100
2023-09-06T02:37:02.293Z,100
2023-09-06T02:38:02.092Z,100
2023-09-06T02:39:02.030Z,100
2023-09-06T02:40:02.171Z,100
2023-09-06T02:41:02.003Z,100
2023-09-06T02:42:01.967Z,100
2023-09-06T02:43:01.897Z,100
2023-09-06T02:44:01.818Z,100
2023-09-06T02:45:01.774Z,100
2023-09-06T02:46:01.831Z,100
2023-09-06T02:47:01.801Z,100
2023-09-06T02:48:01.684Z,100
2023-09-06T02:49:01.532Z,100
2023-09-06T02:50:01.493Z,100
2023-09-06T02:51:01.540Z,100
2023-09-06T02:52:01.525Z,100
2023-09-06T02:53:02.409Z,100
2023-09-06T02:54:02.381Z,100
2023-09-06T02:55:02.472Z,100
2023-09-06T02:56:02.621Z,100
2023-09-06T02:57:01.733Z,100
2023-09-06T02:58:01.642Z,100
2023-09-06T02:59:01.510Z,100
2023-09-06T03:00:03.385Z,100
2023-09-06T03:02:02.268Z,100
2023-09-06T03:03:02.085Z,100
2023-09-06T03:04:02.175Z,100
2023-09-06T03:05:01.946Z,100
2023-09-06T03:06:01.881Z,100
2023-09-06T03:07:02.087Z,100
2023-09-06T03:08:01.798Z,100
2023-09-06T03:09:01.736Z,100
2023-09-06T03:10:01.851Z,100
2023-09-06T03:11:01.646Z,100
2023-09-06T03:12:01.696Z,100
2023-09-06T03:13:02.047Z,100
2023-09-06T03:14:01.703Z,100
2023-09-06T03:15:01.660Z,100
2023-09-06T03:16:02.402Z,100
2023-09-06T03:17:02.375Z,100
2023-09-06T03:18:02.348Z,100
2023-09-06T03:19:02.275Z,100
2023-09-06T03:20:02.252Z,100
2023-09-06T03:21:02.209Z,100
2023-09-06T03:22:02.318Z,100
2023-09-06T03:23:02.150Z,100
2023-09-06T03:24:02.121Z,100
2023-09-06T03:25:02.113Z,100
2023-09-06T03:26:02.045Z,100
2023-09-06T03:27:02.114Z,100
2023-09-06T03:28:02.022Z,100
2023-09-06T03:29:01.940Z,100
2023-09-06T03:30:01.949Z,100
2023-09-06T03:32:01.889Z,100
2023-09-06T03:33:02.084Z,100
2023-09-06T03:34:01.904Z,100
2023-09-06T03:35:01.984Z,100
2023-09-06T03:36:01.960Z,100
2023-09-06T03:37:01.904Z,100
2023-09-06T03:38:01.892Z,100
2023-09-06T03:39:01.767Z,100
2023-09-06T03:40:01.722Z,100
2023-09-06T03:41:01.663Z,100
2023-09-06T03:42:01.565Z,100
2023-09-06T03:43:01.561Z,100
2023-09-06T03:44:01.551Z,100
2023-09-06T03:45:01.448Z,100
2023-09-06T03:46:02.218Z,100
2023-09-06T03:47:02.454Z,100
2023-09-06T03:48:02.809Z,100
2023-09-06T03:49:01.981Z,100
2023-09-06T03:50:01.746Z,100
2023-09-06T03:51:01.760Z,100
2023-09-06T03:52:01.582Z,100
2023-09-06T03:53:01.625Z,100
2023-09-06T03:54:01.511Z,100
2023-09-06T03:55:02.462Z,100
2023-09-06T03:56:02.843Z,100
2023-09-06T03:57:01.609Z,100
2023-09-06T03:58:01.612Z,100
2023-09-06T03:59:01.779Z,100
2023-09-06T04:00:01.808Z,100
2023-09-06T04:01:02.446Z,100
2023-09-06T04:02:02.450Z,100
2023-09-06T04:03:02.630Z,100
2023-09-06T04:04:01.947Z,100
2023-09-06T04:05:02.156Z,100
2023-09-06T04:06:01.988Z,100
2023-09-06T04:07:01.915Z,100
2023-09-06T04:08:02.075Z,100
2023-09-06T04:09:02.155Z,100
2023-09-06T04:10:02.075Z,100
2023-09-06T04:11:02.038Z,100
2023-09-06T04:12:02.045Z,100
2023-09-06T04:13:02.058Z,100
2023-09-06T04:14:01.918Z,100
2023-09-06T04:15:01.787Z,100
2023-09-06T04:16:01.694Z,100
2023-09-06T04:17:01.778Z,100
2023-09-06T04:18:01.726Z,100
2023-09-06T04:19:02.105Z,100
2023-09-06T04:20:01.842Z,100
2023-09-06T04:21:01.825Z,100
2023-09-06T04:22:01.763Z,100
2023-09-06T04:23:01.765Z,100
2023-09-06T04:24:02.913Z,100
2023-09-06T04:25:01.563Z,100
2023-09-06T04:26:01.908Z,100
2023-09-06T04:27:01.800Z,100
2023-09-06T04:28:01.784Z,100
2023-09-06T04:29:01.785Z,100
2023-09-06T04:30:01.805Z,100
2023-09-06T04:31:02.365Z,100
2023-09-06T04:32:02.477Z,100
2023-09-06T04:33:02.318Z,100
2023-09-06T04:34:02.207Z,100
2023-09-06T04:35:02.295Z,100
2023-09-06T04:36:02.112Z,100
2023-09-06T04:37:02.043Z,100
2023-09-06T04:38:02.042Z,100
2023-09-06T04:39:01.982Z,100
2023-09-06T04:40:01.984Z,100
2023-09-06T04:41:01.901Z,100
2023-09-06T04:42:01.838Z,100
2023-09-06T04:43:01.791Z,100
2023-09-06T04:44:01.841Z,100
2023-09-06T04:45:02.426Z,100
2023-09-06T04:47:02.096Z,100
2023-09-06T04:48:02.120Z,100
2023-09-06T04:49:02.146Z,100
2023-09-06T04:50:01.986Z,100
2023-09-06T04:51:01.967Z,100
2023-09-06T04:52:01.943Z,100
2023-09-06T04:53:01.903Z,100
2023-09-06T04:54:01.822Z,100
2023-09-06T04:55:01.750Z,100
2023-09-06T04:56:01.747Z,100
2023-09-06T04:57:01.760Z,100
2023-09-06T04:58:01.627Z,100
2023-09-06T04:59:01.676Z,100
2023-09-06T05:00:02.349Z,100
2023-09-06T05:01:02.376Z,100
2023-09-06T05:02:02.240Z,100
2023-09-06T05:03:02.388Z,100
2023-09-06T05:04:02.445Z,100
2023-09-06T05:05:02.221Z,100
2023-09-06T05:06:02.290Z,100
2023-09-06T05:07:02.162Z,100
2023-09-06T05:08:02.129Z,100
2023-09-06T05:09:02.160Z,100
2023-09-06T05:10:02.048Z,100
2023-09-06T05:11:02.074Z,100
2023-09-06T05:12:01.950Z,100
2023-09-06T05:13:01.860Z,100
2023-09-06T05:14:01.904Z,100
2023-09-06T05:15:01.790Z,100
2023-09-06T05:17:01.580Z,100
2023-09-06T05:18:01.511Z,100
2023-09-06T05:19:02.468Z,100
2023-09-06T05:20:02.367Z,100
2023-09-06T05:21:02.314Z,100
2023-09-06T05:22:02.329Z,100
2023-09-06T05:23:02.277Z,100
2023-09-06T05:24:02.187Z,100
2023-09-06T05:25:02.156Z,100
2023-09-06T05:26:02.071Z,100
2023-09-06T05:27:02.041Z,100
2023-09-06T05:28:02.164Z,100
2023-09-06T05:29:01.977Z,100
2023-09-06T05:30:02.015Z,100
2023-09-06T05:32:01.676Z,100
2023-09-06T05:33:01.597Z,100
2023-09-06T05:34:02.541Z,100
2023-09-06T05:35:01.398Z,100
2023-09-06T05:36:02.417Z,100
2023-09-06T05:37:02.454Z,100
2023-09-06T05:38:02.471Z,100
2023-09-06T05:39:02.315Z,100
2023-09-06T05:40:02.291Z,100
2023-09-06T05:41:02.474Z,100
2023-09-06T05:42:02.251Z,100
2023-09-06T05:43:02.215Z,100
2023-09-06T05:44:02.190Z,100
2023-09-06T05:45:02.113Z,100
2023-09-06T05:46:01.985Z,100
2023-09-06T05:47:01.960Z,100
2023-09-06T05:48:02.370Z,100
2023-09-06T05:49:02.319Z,100
2023-09-06T05:50:02.580Z,100
2023-09-06T05:51:02.322Z,100
2023-09-06T05:52:02.250Z,100
2023-09-06T05:53:02.723Z,100
2023-09-06T05:54:02.409Z,100
2023-09-06T05:55:02.400Z,100
2023-09-06T05:56:02.425Z,100
2023-09-06T05:57:02.310Z,100
2023-09-06T05:58:02.446Z,100
2023-09-06T05:59:02.241Z,100
2023-09-06T06:00:02.720Z,100
2023-09-06T06:02:01.984Z,100
2023-09-06T06:03:01.873Z,100
2023-09-06T06:04:02.053Z,100
2023-09-06T06:05:01.941Z,100
2023-09-06T06:06:01.813Z,100
2023-09-06T06:07:01.794Z,100
2023-09-06T06:08:01.741Z,100
2023-09-06T06:09:01.783Z,100
2023-09-06T06:10:01.842Z,100
2023-09-06T06:11:01.750Z,100
2023-09-06T06:12:01.577Z,100
2023-09-06T06:13:01.526Z,100
2023-09-06T06:14:11.494Z,100
2023-09-06T06:15:02.447Z,100
2023-09-06T06:16:02.440Z,100
2023-09-06T06:17:02.336Z,100
2023-09-06T06:18:02.294Z,100
2023-09-06T06:19:02.227Z,100
2023-09-06T06:20:02.306Z,100
2023-09-06T06:21:02.356Z,100
2023-09-06T06:22:02.240Z,100
2023-09-06T06:23:02.250Z,100
2023-09-06T06:24:02.261Z,100
2023-09-06T06:25:02.178Z,100
2023-09-06T06:26:02.102Z,100
2023-09-06T06:27:02.058Z,100
2023-09-06T06:28:02.305Z,100
2023-09-06T06:29:02.574Z,100
2023-09-06T06:30:01.627Z,100
2023-09-06T06:31:02.428Z,100
2023-09-06T06:32:02.591Z,100
2023-09-06T06:33:02.104Z,100
2023-09-06T06:34:02.010Z,100
2023-09-06T06:35:01.893Z,100
2023-09-06T06:36:01.825Z,100
2023-09-06T06:37:01.823Z,100
2023-09-06T06:38:01.846Z,100
2023-09-06T06:39:02.222Z,100
2023-09-06T06:40:02.014Z,100
2023-09-06T06:41:02.052Z,100
2023-09-06T06:42:01.872Z,100
2023-09-06T06:43:01.831Z,100
2023-09-06T06:44:02.404Z,100
2023-09-06T06:45:02.175Z,100
2023-09-06T06:46:02.165Z,100
2023-09-06T06:47:02.118Z,100
2023-09-06T06:48:02.098Z,100
2023-09-06T06:49:02.466Z,100
2023-09-06T06:50:02.288Z,100
2023-09-06T06:51:02.127Z,100
2023-09-06T06:52:02.138Z,100
2023-09-06T06:53:02.306Z,100
2023-09-06T06:54:02.527Z,100
2023-09-06T06:55:02.458Z,100
2023-09-06T06:56:02.476Z,100
2023-09-06T06:57:02.380Z,100
2023-09-06T06:58:02.356Z,100
2023-09-06T06:59:02.531Z,100
2023-09-06T07:00:02.448Z,100
2023-09-06T07:02:02.060Z,100
2023-09-06T07:03:02.137Z,100
2023-09-06T07:04:01.898Z,100
2023-09-06T07:05:01.854Z,100
2023-09-06T07:06:01.680Z,100
2023-09-06T07:07:01.652Z,100
2023-09-06T07:08:01.619Z,100
2023-09-06T07:09:01.544Z,100
2023-09-06T07:10:01.633Z,100
2023-09-06T07:11:01.561Z,100
2023-09-06T07:12:01.463Z,100
2023-09-06T07:13:01.436Z,100
2023-09-06T07:14:02.511Z,100
2023-09-06T07:15:02.866Z,100
2023-09-06T07:17:02.760Z,100
2023-09-06T07:18:01.892Z,100
2023-09-06T07:19:01.684Z,100
2023-09-06T07:20:01.712Z,100
2023-09-06T07:21:01.620Z,100
2023-09-06T07:22:01.550Z,100
2023-09-06T07:23:01.558Z,100
2023-09-06T07:24:01.517Z,100
2023-09-06T07:25:04.492Z,100
2023-09-06T07:26:02.244Z,100
2023-09-06T07:27:02.108Z,100
2023-09-06T07:28:02.018Z,100
2023-09-06T07:29:02.033Z,100
2023-09-06T07:30:01.913Z,100
2023-09-06T07:31:02.390Z,100
2023-09-06T07:32:02.278Z,100
2023-09-06T07:33:02.386Z,100
2023-09-06T07:34:02.273Z,100
2023-09-06T07:35:02.242Z,100
2023-09-06T07:36:02.204Z,100
2023-09-06T07:37:02.131Z,100
2023-09-06T07:38:02.149Z,100
2023-09-06T07:39:02.024Z,100
2023-09-06T07:40:01.958Z,100
2023-09-06T07:41:01.971Z,100
2023-09-06T07:42:02.250Z,100
2023-09-06T07:43:02.139Z,100
2023-09-06T07:44:02.101Z,100
2023-09-06T07:45:02.073Z,100
2023-09-06T07:47:02.472Z,100
2023-09-06T07:48:02.818Z,100
2023-09-06T07:49:02.012Z,100
2023-09-06T07:50:02.040Z,100
2023-09-06T07:51:01.913Z,100
2023-09-06T07:52:01.858Z,100
2023-09-06T07:53:01.759Z,100
2023-09-06T07:54:01.710Z,100
2023-09-06T07:55:01.650Z,100
2023-09-06T07:56:01.719Z,100
2023-09-06T07:57:01.633Z,100
2023-09-06T07:58:01.540Z,100
2023-09-06T07:59:01.610Z,100
2023-09-06T08:00:02.178Z,100
2023-09-06T08:01:19.788Z,100
2023-09-06T08:02:01.998Z,100
2023-09-06T08:03:01.992Z,100
2023-09-06T08:04:02.079Z,100
2023-09-06T08:05:01.916Z,100
2023-09-06T08:06:02.051Z,100
2023-09-06T08:07:02.157Z,100
2023-09-06T08:08:02.083Z,100
2023-09-06T08:09:02.129Z,100
2023-09-06T08:10:01.949Z,100
2023-09-06T08:11:01.902Z,100
2023-09-06T08:12:02.010Z,100
2023-09-06T08:13:01.809Z,100
2023-09-06T08:14:01.817Z,100
2023-09-06T08:15:01.873Z,100
2023-09-06T08:16:01.733Z,100
2023-09-06T08:17:01.739Z,100
2023-09-06T08:18:01.803Z,100
2023-09-06T08:19:01.701Z,100
2023-09-06T08:20:01.544Z,100
2023-09-06T08:21:01.570Z,100
2023-09-06T08:22:02.003Z,100
2023-09-06T08:23:01.902Z,100
2023-09-06T08:24:01.935Z,100
2023-09-06T08:25:01.837Z,100
2023-09-06T08:26:01.792Z,100
2023-09-06T08:27:01.849Z,100
2023-09-06T08:28:01.685Z,100
2023-09-06T08:29:01.674Z,100
2023-09-06T08:30:01.803Z,100
2023-09-06T08:31:01.845Z,100
2023-09-06T08:32:01.909Z,100
2023-09-06T08:33:01.990Z,100
2023-09-06T08:34:01.959Z,99
2023-09-06T08:35:01.783Z,100
2023-09-06T08:36:01.798Z,100
2023-09-06T08:37:01.715Z,99
2023-09-06T08:38:01.604Z,99
2023-09-06T08:39:01.644Z,96
2023-09-06T08:40:01.623Z,97
2023-09-06T08:41:01.501Z,98
2023-09-06T08:42:01.606Z,95
2023-09-06T08:43:01.425Z,93
2023-09-06T08:44:02.427Z,97
2023-09-06T08:45:02.418Z,93
2023-09-06T08:47:02.216Z,93
2023-09-06T08:48:02.207Z,93
2023-09-06T08:49:02.176Z,97
2023-09-06T08:50:01.939Z,93
2023-09-06T08:51:01.942Z,93
2023-09-06T08:52:01.926Z,93
2023-09-06T08:53:01.815Z,89
2023-09-06T08:54:01.766Z,89
2023-09-06T08:55:01.746Z,90
2023-09-06T08:56:01.722Z,88
2023-09-06T08:57:01.787Z,89
2023-09-06T08:58:01.646Z,88
2023-09-06T08:59:01.606Z,88
2023-09-06T09:00:03.117Z,87
2023-09-06T09:02:02.193Z,89
2023-09-06T09:03:02.253Z,85
2023-09-06T09:04:02.428Z,86
2023-09-06T09:05:20.889Z,86
2023-09-06T09:06:01.685Z,83
2023-09-06T09:07:01.708Z,86
2023-09-06T09:08:01.636Z,85
2023-09-06T09:09:01.582Z,87
2023-09-06T09:10:01.515Z,85
2023-09-06T09:11:01.505Z,81
2023-09-06T09:12:02.462Z,83
2023-09-06T09:13:02.714Z,84
2023-09-06T09:14:01.664Z,80
2023-09-06T09:15:23.186Z,79
2023-09-06T09:16:02.400Z,77
2023-09-06T09:17:02.320Z,81
2023-09-06T09:18:02.789Z,79
2023-09-06T09:19:01.553Z,82
2023-09-06T09:20:01.528Z,84
2023-09-06T09:21:01.412Z,82
2023-09-06T09:22:02.438Z,84
2023-09-06T09:23:02.986Z,82
2023-09-06T09:24:01.674Z,82
2023-09-06T09:25:01.736Z,80
2023-09-06T09:26:01.604Z,78
2023-09-06T09:27:01.556Z,79
2023-09-06T09:28:01.646Z,76
2023-09-06T09:29:01.510Z,78
2023-09-06T09:30:01.585Z,77
2023-09-06T09:31:02.506Z,78
2023-09-06T09:32:02.311Z,77
2023-09-06T09:33:02.806Z,77
2023-09-06T09:34:02.333Z,78
2023-09-06T09:35:02.320Z,77
2023-09-06T09:36:02.436Z,75
2023-09-06T09:37:02.306Z,74
2023-09-06T09:38:02.728Z,73
2023-09-06T09:39:01.729Z,74
2023-09-06T09:40:01.615Z,77
2023-09-06T09:41:01.593Z,74
2023-09-06T09:42:01.745Z,76
2023-09-06T09:43:01.537Z,77
2023-09-06T09:44:01.573Z,75
2023-09-06T09:45:01.680Z,75
2023-09-06T09:46:01.563Z,73
2023-09-06T09:47:22.820Z,74
2023-09-06T09:48:01.749Z,75
2023-09-06T09:49:02.208Z,76
2023-09-06T09:50:02.356Z,71
2023-09-06T09:51:02.378Z,73
2023-09-06T09:52:02.254Z,71
2023-09-06T09:53:21.032Z,69
2023-09-06T09:54:02.844Z,67
2023-09-06T09:55:01.563Z,67
2023-09-06T09:56:01.463Z,67
2023-09-06T09:57:02.444Z,67
2023-09-06T09:58:02.424Z,67
2023-09-06T09:59:02.544Z,68
2023-09-06T10:00:03.148Z,68
2023-09-06T10:02:02.281Z,67
2023-09-06T10:03:02.262Z,67
2023-09-06T10:04:02.430Z,70
2023-09-06T10:05:02.878Z,69
2023-09-06T10:06:01.927Z,68
2023-09-06T10:07:01.874Z,66
2023-09-06T10:08:01.813Z,67
2023-09-06T10:09:01.768Z,66
2023-09-06T10:10:01.870Z,67
2023-09-06T10:11:01.648Z,66
2023-09-06T10:12:01.635Z,68
2023-09-06T10:13:01.658Z,66
2023-09-06T10:14:01.576Z,65
2023-09-06T10:15:01.613Z,65
2023-09-06T10:16:02.445Z,66
2023-09-06T10:17:02.297Z,67
2023-09-06T10:18:02.458Z,64
2023-09-06T10:19:02.363Z,61
2023-09-06T10:20:02.396Z,62
2023-09-06T10:21:02.234Z,57
2023-09-06T10:22:02.205Z,59
2023-09-06T10:23:02.215Z,57
2023-09-06T10:24:02.192Z,60
2023-09-06T10:25:02.267Z,59
2023-09-06T10:26:02.136Z,61
2023-09-06T10:27:02.080Z,59
2023-09-06T10:28:02.038Z,58
2023-09-06T10:29:02.038Z,60
2023-09-06T10:30:05.494Z,60
2023-09-06T10:31:02.092Z,61
2023-09-06T10:32:01.978Z,60
2023-09-06T10:33:02.044Z,61
2023-09-06T10:34:01.958Z,61
2023-09-06T10:35:01.862Z,64
2023-09-06T10:36:02.037Z,58
2023-09-06T10:37:02.033Z,60
2023-09-06T10:38:01.831Z,60
2023-09-06T10:39:01.774Z,59
2023-09-06T10:40:01.775Z,57
2023-09-06T10:41:01.687Z,58
2023-09-06T10:42:01.583Z,58
2023-09-06T10:43:01.579Z,59
2023-09-06T10:44:01.585Z,57
2023-09-06T10:45:01.709Z,60
2023-09-06T10:46:01.591Z,59
2023-09-06T10:47:01.666Z,60
2023-09-06T10:48:01.572Z,59
2023-09-06T10:49:02.487Z,59
2023-09-06T10:50:02.476Z,59
2023-09-06T10:51:02.453Z,58
2023-09-06T10:52:02.464Z,58
2023-09-06T10:53:02.370Z,58
2023-09-06T10:54:02.375Z,58
2023-09-06T10:55:02.552Z,58
2023-09-06T10:56:01.613Z,58
2023-09-06T10:57:06.371Z,58
2023-09-06T10:58:01.586Z,60
2023-09-06T10:59:01.521Z,58
2023-09-06T11:00:03.152Z,59
2023-09-06T11:02:01.674Z,60
2023-09-06T11:03:01.743Z,58
2023-09-06T11:04:01.689Z,57
2023-09-06T11:05:01.571Z,56
2023-09-06T11:06:01.542Z,57
2023-09-06T11:07:01.572Z,57
2023-09-06T11:08:02.049Z,56
2023-09-06T11:09:01.813Z,56
2023-09-06T11:10:01.886Z,56
2023-09-06T11:11:01.847Z,55
2023-09-06T11:12:01.686Z,56
2023-09-06T11:13:01.747Z,55
2023-09-06T11:14:01.565Z,55
2023-09-06T11:15:01.565Z,56
2023-09-06T11:16:01.932Z,57
2023-09-06T11:17:01.798Z,55
2023-09-06T11:18:01.832Z,56
2023-09-06T11:19:01.652Z,57
2023-09-06T11:20:01.550Z,56
2023-09-06T11:21:01.635Z,55
2023-09-06T11:22:01.458Z,56
2023-09-06T11:23:02.474Z,55
2023-09-06T11:24:02.389Z,57
2023-09-06T11:25:02.356Z,55
2023-09-06T11:26:02.325Z,53
2023-09-06T11:27:02.555Z,54
2023-09-06T11:28:01.992Z,55
2023-09-06T11:29:02.084Z,55
2023-09-06T11:30:02.060Z,56
2023-09-06T11:31:02.080Z,54
2023-09-06T11:32:02.033Z,52
2023-09-06T11:33:02.063Z,52
2023-09-06T11:34:02.134Z,53
2023-09-06T11:35:02.068Z,54
2023-09-06T11:36:01.905Z,53
2023-09-06T11:37:02.054Z,53
2023-09-06T11:38:01.779Z,52
2023-09-06T11:39:01.860Z,53
2023-09-06T11:40:01.764Z,53
2023-09-06T11:41:01.732Z,54
2023-09-06T11:42:01.606Z,54
2023-09-06T11:43:01.630Z,55
2023-09-06T11:44:01.487Z,54
2023-09-06T11:45:01.573Z,54
2023-09-06T11:46:01.501Z,53
2023-09-06T11:47:01.726Z,53
2023-09-06T11:48:01.618Z,53
2023-09-06T11:49:01.605Z,53
2023-09-06T11:50:01.394Z,54
2023-09-06T11:51:02.413Z,52
2023-09-06T11:52:02.397Z,52
2023-09-06T11:53:02.540Z,52
2023-09-06T11:54:02.672Z,52
2023-09-06T11:55:02.456Z,52
2023-09-06T11:56:02.380Z,52
2023-09-06T11:57:02.511Z,52
2023-09-06T11:58:02.264Z,53
2023-09-06T11:59:02.279Z,53
2023-09-06T12:00:02.624Z,52
2023-09-06T12:02:01.526Z,51
2023-09-06T12:03:01.702Z,52
2023-09-06T12:04:01.633Z,51
2023-09-06T12:05:01.427Z,51
2023-09-06T12:06:02.536Z,50
2023-09-06T12:07:02.469Z,50
2023-09-06T12:08:02.551Z,51
2023-09-06T12:09:02.448Z,50
2023-09-06T12:10:02.546Z,51
2023-09-06T12:11:02.341Z,51
2023-09-06T12:12:02.411Z,49
2023-09-06T12:13:02.254Z,52
2023-09-06T12:14:02.424Z,52
2023-09-06T12:15:02.366Z,49
2023-09-06T12:16:02.267Z,51
2023-09-06T12:17:02.458Z,49
2023-09-06T12:18:02.295Z,49
2023-09-06T12:19:02.547Z,50
2023-09-06T12:20:02.306Z,51
2023-09-06T12:21:02.268Z,51
2023-09-06T12:22:02.271Z,50
2023-09-06T12:23:02.106Z,51
2023-09-06T12:24:02.114Z,51
2023-09-06T12:25:02.101Z,50
2023-09-06T12:26:01.846Z,51
2023-09-06T12:27:02.117Z,51
2023-09-06T12:28:01.778Z,50
2023-09-06T12:29:05.391Z,48
2023-09-06T12:30:02.654Z,48
2023-09-06T12:32:02.549Z,48
2023-09-06T12:33:02.490Z,49
2023-09-06T12:34:02.561Z,47
2023-09-06T12:35:02.365Z,48
2023-09-06T12:36:02.487Z,47
2023-09-06T12:37:02.306Z,47
2023-09-06T12:38:02.404Z,48
2023-09-06T12:39:02.201Z,48
2023-09-06T12:40:02.721Z,47
2023-09-06T12:41:02.471Z,47
2023-09-06T12:42:02.800Z,48
2023-09-06T12:43:04.732Z,47
2023-09-06T12:44:01.511Z,48
2023-09-06T12:45:01.745Z,47
2023-09-06T12:46:01.518Z,46
2023-09-06T12:47:01.576Z,47
2023-09-06T12:48:02.813Z,47
2023-09-06T12:49:01.828Z,47
2023-09-06T12:50:01.703Z,47
2023-09-06T12:51:01.706Z,46
2023-09-06T12:52:01.636Z,46
2023-09-06T12:53:01.554Z,46
2023-09-06T12:54:01.710Z,45
2023-09-06T12:55:01.472Z,46
2023-09-06T12:56:01.698Z,46
2023-09-06T12:57:01.599Z,45
2023-09-06T12:58:01.450Z,45
2023-09-06T12:59:02.495Z,45
2023-09-06T13:00:03.548Z,44
2023-09-06T13:02:02.455Z,46
2023-09-06T13:03:02.394Z,46
2023-09-06T13:04:02.616Z,45
2023-09-06T13:05:01.996Z,44
2023-09-06T13:06:02.107Z,46
2023-09-06T13:07:01.879Z,46
2023-09-06T13:08:01.963Z,43
2023-09-06T13:09:01.859Z,44
2023-09-06T13:10:01.920Z,42
2023-09-06T13:11:01.939Z,43
2023-09-06T13:12:01.864Z,44
2023-09-06T13:13:01.969Z,43
2023-09-06T13:14:01.965Z,44
2023-09-06T13:15:01.842Z,41
2023-09-06T13:16:02.234Z,42
2023-09-06T13:17:02.148Z,43
2023-09-06T13:18:02.141Z,44
2023-09-06T13:19:02.189Z,43
2023-09-06T13:20:02.243Z,42
2023-09-06T13:21:02.056Z,40
2023-09-06T13:22:02.081Z,41
2023-09-06T13:23:02.053Z,41
2023-09-06T13:24:01.859Z,42
2023-09-06T13:25:01.908Z,42
2023-09-06T13:26:01.693Z,41
2023-09-06T13:27:01.749Z,42
2023-09-06T13:28:01.624Z,41
2023-09-06T13:29:01.645Z,40
2023-09-06T13:30:01.512Z,40
2023-09-06T13:31:01.959Z,40
2023-09-06T13:32:02.236Z,41
2023-09-06T13:33:02.407Z,41
2023-09-06T13:34:02.162Z,41
2023-09-06T13:35:02.309Z,41
2023-09-06T13:36:02.029Z,41
2023-09-06T13:37:01.989Z,41
2023-09-06T13:38:02.016Z,40
2023-09-06T13:39:02.004Z,40
2023-09-06T13:40:01.886Z,41
2023-09-06T13:41:02.008Z,39
2023-09-06T13:42:02.022Z,41
2023-09-06T13:43:02.217Z,40
2023-09-06T13:44:02.243Z,41
2023-09-06T13:45:02.032Z,40
2023-09-06T13:46:01.935Z,40
2023-09-06T13:47:02.159Z,40
2023-09-06T13:48:02.391Z,40
2023-09-06T13:49:02.289Z,40
2023-09-06T13:50:02.363Z,39
2023-09-06T13:51:02.436Z,40
2023-09-06T13:52:02.219Z,40
2023-09-06T13:53:02.400Z,40
2023-09-06T13:54:02.101Z,40
2023-09-06T13:55:02.165Z,39
2023-09-06T13:56:02.554Z,39
2023-09-06T13:57:02.594Z,39
2023-09-06T13:58:02.453Z,40
2023-09-06T13:59:02.448Z,40
2023-09-06T14:00:02.635Z,40
2023-09-06T14:02:02.543Z,40
2023-09-06T14:03:02.871Z,41
2023-09-06T14:04:02.345Z,41
2023-09-06T14:05:02.414Z,41
2023-09-06T14:06:06.717Z,41
2023-09-06T14:07:01.434Z,40
2023-09-06T14:08:01.681Z,40
2023-09-06T14:09:02.477Z,40
2023-09-06T14:10:02.484Z,41
2023-09-06T14:11:02.518Z,42
2023-09-06T14:12:02.355Z,41
2023-09-06T14:13:02.401Z,41
2023-09-06T14:14:02.456Z,41
2023-09-06T14:15:02.495Z,41
2023-09-06T14:16:02.244Z,41
2023-09-06T14:17:02.314Z,40
2023-09-06T14:18:02.094Z,41